Wednesday, May 23, 2018, 4:58 AM GMT
Back to Local

CWGR, Iles-De-La-Madelein

Location: , , Canada Lat: 47.417
Local Time: 4:58 AM GMT ( 4:58 GMT) Lon: -61.8
Time Zone: GMT Elev: 32 ft

Show me the last for .
Show Coded

Time T Td Feel RH Dir Speed Gust Alt SLP Vis Weather Sky Remarks
2018-05-23 04:00 51 35 - 52 200° 16 28 - 29.82 0 Peak wind: 36 mph (32 kts) from 210° at 25 min
2018-05-23 03:00 53 35 - 48 200° 21 30 - 29.83 0 Peak wind: 32 mph (28 kts) from 210° at 06 min
2018-05-23 02:00 49 35 40 58 200° 21 35 - 29.85 0 Peak wind: 35 mph (31 kts) from 140° at 20 min
2018-05-23 01:00 49 36 41 60 190° 21 29 - 29.86 0 Peak wind: 34 mph (30 kts) from 200° at 14 min
2018-05-23 00:00 51 35 - 55 190° 21 31 - 29.86 0 Peak wind: 32 mph (28 kts) from 170° at 22 min
2018-05-22 23:00 51 31 - 45 180° 20 29 - 29.88 0 Peak wind: 31 mph (27 kts) from 180° at 20 min
2018-05-22 22:00 49 31 40 51 180° 21 31 - 29.93 0 Peak wind: 31 mph (27 kts) from 160° at 56 min
2018-05-22 21:00 50 30 43 46 170° 17 24 - 29.96 0 Peak wind: 27 mph (24 kts) from 170° at 17 min
2018-05-22 20:00 47 31 39 53 170° 17 24 - 30.01 0 Peak wind: 26 mph (23 kts) from 170° at 25 min
Pressure falling rapidly
2018-05-22 19:00 47 28 39 48 170° 16 22 - 30.07 0 Peak wind: 26 mph (23 kts) from 170° at 14 min
2018-05-22 18:00 46 27 38 47 170° 15 23 - 30.09 0 Peak wind: 23 mph (20 kts) from 180° at 56 min
2018-05-22 17:00 47 25 41 41 180° 12 18 - 30.13 0 None
2018-05-22 16:00 48 25 43 41 190° 10 - - 30.14 0 None
2018-05-22 15:00 46 25 40 43 280° 10 - - 30.16 0 None
2018-05-22 14:00 45 29 39 53 300° 10 - - 30.18 0 None
2018-05-22 13:00 44 31 38 59 300° 13 - - 30.18 0 Peak wind: 19 mph (17 kts) from 300° at 03 min
2018-05-22 12:00 42 32 35 66 300° 14 - - 30.17 0 Peak wind: 19 mph (17 kts) from 290° at 45 min
2018-05-22 11:00 40 33 32 75 310° 15 - - 30.15 0 Peak wind: 21 mph (19 kts) from 290° at 12 min
2018-05-22 10:00 41 32 33 70 300° 15 - - 30.14 0 Peak wind: 21 mph (19 kts) from 290° at 28 min
2018-05-22 09:00 40 31 31 71 300° 16 - - 30.11 0 Peak wind: 23 mph (20 kts) from 300° at 36 min
2018-05-22 08:00 40 31 31 71 300° 16 - - 30.09 0 Peak wind: 26 mph (23 kts) from 300° at 21 min
2018-05-22 07:00 40 32 30 71 300° 17 24 - 30.06 0 Peak wind: 24 mph (21 kts) from 300° at 00 min
2018-05-22 06:00 41 30 30 65 310° 20 25 - 30.04 0 Peak wind: 31 mph (27 kts) from 310° at 02 min
2018-05-22 05:00 42 30 31 62 310° 23 29 - 30.03 0 Peak wind: 28 mph (25 kts) from 330° at 57 min

Support USWX by starting your Amazon purchase here.